createdAt,value
2017-12-23T00:00:23.016Z,93.10
2017-12-23T00:01:23.912Z,97.80
2017-12-23T00:03:16.519Z,91.70
2017-12-23T00:05:30.846Z,100.10
2017-12-23T00:06:30.844Z,101.50
2017-12-23T00:08:24.995Z,105.40
2017-12-23T00:09:24.423Z,102.50
2017-12-23T00:11:17.993Z,99.60
2017-12-23T00:12:17.975Z,97.40
2017-12-23T00:14:09.629Z,102.20
2017-12-23T00:15:11.523Z,100.30
2017-12-23T00:17:04.934Z,112.60
2017-12-23T00:18:05.091Z,103.00
2017-12-23T00:19:57.743Z,105.50
2017-12-23T00:20:58.657Z,105.70
2017-12-23T00:22:51.151Z,105.50
2017-12-23T00:23:51.239Z,102.00
2017-12-23T00:25:44.901Z,101.70
2017-12-23T00:26:46.678Z,104.30
2017-12-23T00:28:38.458Z,110.30
2017-12-23T00:29:39.328Z,110.70
2017-12-23T00:31:30.063Z,108.90
2017-12-23T00:32:32.892Z,105.70
2017-12-23T00:34:26.469Z,104.30
2017-12-23T00:35:26.457Z,100.20
2017-12-23T00:37:19.118Z,105.60
2017-12-23T00:38:20.012Z,105.70
2017-12-23T00:40:12.479Z,107.50
2017-12-23T00:41:13.530Z,108.80
2017-12-23T00:43:07.137Z,104.40
2017-12-23T00:44:05.170Z,109.40
2017-12-23T00:46:01.290Z,106.80
2017-12-23T00:47:00.742Z,115.20
2017-12-23T00:48:54.114Z,116.10
2017-12-23T00:49:54.250Z,111.10
2017-12-23T00:51:46.874Z,107.80
2017-12-23T00:52:47.787Z,110.10
2017-12-23T00:54:41.350Z,95.60
2017-12-23T00:55:41.326Z,106.20
2017-12-23T00:57:35.493Z,102.30
2017-12-23T00:58:34.986Z,111.80
2017-12-23T01:00:27.315Z,119.10
2017-12-23T01:01:25.789Z,118.90
2017-12-23T01:03:21.097Z,131.90
2017-12-23T01:04:22.042Z,123.50
2017-12-23T01:06:15.513Z,133.60
2017-12-23T01:07:15.590Z,135.50
2017-12-23T01:09:10.082Z,129.30
2017-12-23T01:10:09.175Z,138.70
2017-12-23T01:12:01.812Z,128.30
2017-12-23T01:13:02.699Z,124.00
2017-12-23T01:14:56.240Z,139.50
2017-12-23T01:15:56.249Z,128.00
2017-12-23T01:17:48.948Z,123.40
2017-12-23T01:18:47.182Z,125.40
2017-12-23T01:20:40.936Z,122.70
2017-12-23T01:21:43.388Z,133.30
2017-12-23T01:23:36.027Z,123.00
2017-12-23T01:24:36.991Z,125.00
2017-12-23T01:26:30.520Z,127.20
2017-12-23T01:27:30.492Z,115.10
2017-12-23T01:29:23.169Z,121.40
2017-12-23T01:30:24.092Z,121.80
2017-12-23T01:32:17.602Z,129.40
2017-12-23T01:33:17.610Z,121.80
2017-12-23T01:35:10.267Z,125.50
2017-12-23T01:36:08.516Z,123.70
2017-12-23T01:38:04.673Z,133.90
2017-12-23T01:39:04.778Z,138.10
2017-12-23T01:40:58.185Z,132.80
2017-12-23T01:41:58.369Z,123.10
2017-12-23T01:43:50.972Z,129.70
2017-12-23T01:44:51.844Z,119.40
2017-12-23T01:46:45.446Z,124.10
2017-12-23T01:47:45.406Z,125.10
2017-12-23T01:49:39.586Z,117.20
2017-12-23T01:50:38.134Z,124.20
2017-12-23T01:52:32.593Z,109.00
2017-12-23T01:53:29.855Z,105.30
2017-12-23T01:55:25.151Z,115.90
2017-12-23T01:56:26.157Z,98.10
2017-12-23T01:58:19.685Z,97.30
2017-12-23T01:59:19.741Z,101.10
2017-12-23T02:01:13.809Z,89.50
2017-12-23T02:02:13.275Z,83.90
2017-12-23T02:04:06.766Z,92.60
2017-12-23T02:05:06.800Z,91.90
2017-12-23T02:06:59.438Z,68.60
2017-12-23T02:08:00.356Z,71.40
2017-12-23T02:09:53.033Z,61.30
2017-12-23T02:10:53.847Z,58.40
2017-12-23T02:12:47.367Z,59.40
2017-12-23T02:13:47.469Z,55.50
2017-12-23T02:15:40.006Z,56.90
2017-12-23T02:16:41.050Z,52.80
2017-12-23T02:18:35.485Z,42.80
2017-12-23T02:19:34.560Z,47.90
2017-12-23T02:21:26.808Z,42.60
2017-12-23T02:22:28.126Z,44.70
2017-12-23T02:24:21.071Z,45.10
2017-12-23T02:25:21.711Z,44.90
2017-12-23T02:27:15.874Z,53.60
2017-12-23T02:28:15.267Z,49.10
2017-12-23T02:30:08.793Z,45.20
2017-12-23T02:31:08.687Z,43.50
2017-12-23T02:33:01.440Z,42.70
2017-12-23T02:34:02.436Z,40.70
2017-12-23T02:35:55.738Z,41.50
2017-12-23T02:36:55.963Z,40.00
2017-12-23T02:38:50.898Z,42.80
2017-12-23T02:39:49.477Z,38.10
2017-12-23T02:41:41.793Z,43.60
2017-12-23T02:42:43.025Z,42.90
2017-12-23T02:44:35.723Z,43.20
2017-12-23T02:45:36.582Z,45.30
2017-12-23T02:47:29.122Z,44.00
2017-12-23T02:48:30.141Z,45.20
2017-12-23T02:50:22.810Z,44.10
2017-12-23T02:51:23.702Z,42.80
2017-12-23T02:53:16.086Z,45.50
2017-12-23T02:54:17.257Z,43.70
2017-12-23T02:56:10.750Z,49.60
2017-12-23T02:57:10.834Z,49.50
2017-12-23T02:59:05.002Z,48.40
2017-12-23T03:00:04.382Z,53.70
2017-12-23T03:01:57.077Z,51.20
2017-12-23T03:02:57.957Z,47.30
2017-12-23T03:04:50.566Z,48.50
2017-12-23T03:05:51.521Z,50.70
2017-12-23T03:07:45.088Z,48.90
2017-12-23T03:08:45.084Z,44.70
2017-12-23T03:10:37.708Z,45.10
2017-12-23T03:11:37.652Z,48.90
2017-12-23T03:13:32.094Z,43.00
2017-12-23T03:14:32.171Z,40.70
2017-12-23T03:16:24.841Z,36.40
2017-12-23T03:17:25.764Z,33.70
2017-12-23T03:19:19.091Z,33.90
2017-12-23T03:20:19.276Z,31.20
2017-12-23T03:22:11.825Z,30.30
2017-12-23T03:23:11.977Z,29.10
2017-12-23T03:25:06.387Z,32.70
2017-12-23T03:26:06.399Z,33.20
2017-12-23T03:27:57.741Z,35.40
2017-12-23T03:29:00.004Z,33.60
2017-12-23T03:30:52.654Z,33.00
2017-12-23T03:31:53.539Z,37.00
2017-12-23T03:33:47.082Z,37.80
2017-12-23T03:34:47.090Z,38.50
2017-12-23T03:36:39.468Z,36.80
2017-12-23T03:37:41.520Z,36.90
2017-12-23T03:39:34.184Z,38.30
2017-12-23T03:40:34.337Z,41.60
2017-12-23T03:42:26.864Z,42.90
2017-12-23T03:43:27.804Z,43.50
2017-12-23T03:45:19.112Z,46.20
2017-12-23T03:46:21.376Z,45.10
2017-12-23T03:48:15.462Z,48.10
2017-12-23T03:49:14.847Z,50.20
2017-12-23T03:51:08.346Z,48.90
2017-12-23T03:52:08.488Z,45.50
2017-12-23T03:54:01.861Z,50.70
2017-12-23T03:55:01.990Z,50.70
2017-12-23T03:56:55.597Z,49.30
2017-12-23T03:57:55.561Z,47.30
2017-12-23T03:59:48.173Z,46.30
2017-12-23T04:00:49.113Z,45.50
2017-12-23T04:02:42.650Z,42.30
2017-12-23T04:03:41.874Z,43.50
2017-12-23T04:05:35.333Z,42.60
2017-12-23T04:06:36.243Z,40.20
2017-12-23T04:08:28.606Z,42.20
2017-12-23T04:09:28.874Z,40.80
2017-12-23T04:11:23.395Z,41.40
2017-12-23T04:12:23.330Z,44.70
2017-12-23T04:14:15.816Z,40.50
2017-12-23T04:15:15.986Z,43.80
2017-12-23T04:17:10.534Z,43.20
2017-12-23T04:18:10.493Z,41.30
2017-12-23T04:20:02.941Z,39.50
2017-12-23T04:21:03.104Z,36.10
2017-12-23T04:22:56.962Z,39.70
2017-12-23T04:23:57.563Z,38.40
2017-12-23T04:25:48.809Z,39.90
2017-12-23T04:26:51.137Z,40.30
2017-12-23T04:28:43.746Z,41.30
2017-12-23T04:29:44.713Z,42.80
2017-12-23T04:31:37.179Z,43.40
2017-12-23T04:32:38.225Z,45.60
2017-12-23T04:34:31.628Z,48.80
2017-12-23T04:35:30.988Z,47.60
2017-12-23T04:37:23.429Z,48.70
2017-12-23T04:38:25.350Z,53.30
2017-12-23T04:40:18.003Z,53.20
2017-12-23T04:41:18.975Z,58.20
2017-12-23T04:43:11.585Z,63.00
2017-12-23T04:44:12.544Z,61.40
2017-12-23T04:46:05.958Z,58.20
2017-12-23T04:47:06.014Z,64.80
2017-12-23T04:49:00.255Z,62.20
2017-12-23T04:49:59.590Z,66.30
2017-12-23T04:51:53.133Z,56.50
2017-12-23T04:52:53.148Z,54.80
2017-12-23T04:54:45.811Z,50.80
2017-12-23T04:55:46.844Z,48.90
2017-12-23T04:57:40.321Z,47.30
2017-12-23T04:58:41.151Z,44.90
2017-12-23T05:00:32.907Z,41.00
2017-12-23T05:01:33.867Z,43.80
2017-12-23T05:03:26.563Z,39.90
2017-12-23T05:04:27.371Z,39.00
2017-12-23T05:06:20.047Z,39.60
2017-12-23T05:07:21.014Z,39.10
2017-12-23T05:09:14.490Z,36.10
2017-12-23T05:10:14.503Z,42.00
2017-12-23T05:12:07.137Z,43.20
2017-12-23T05:13:08.049Z,40.20
2017-12-23T05:15:00.765Z,40.10
2017-12-23T05:16:01.603Z,45.10
2017-12-23T05:17:55.081Z,43.50
2017-12-23T05:18:54.364Z,44.20
2017-12-23T05:20:47.809Z,42.50
2017-12-23T05:21:48.734Z,41.80
2017-12-23T05:23:41.212Z,42.40
2017-12-23T05:24:42.319Z,42.30
2017-12-23T05:26:34.886Z,41.60
2017-12-23T05:27:34.963Z,43.30
2017-12-23T05:29:29.273Z,40.70
2017-12-23T05:30:29.394Z,40.30
2017-12-23T05:32:22.075Z,33.20
2017-12-23T05:33:22.947Z,33.60
2017-12-23T05:35:16.546Z,34.60
2017-12-23T05:36:16.514Z,39.20
2017-12-23T05:38:10.653Z,35.40
2017-12-23T05:39:10.072Z,36.40
2017-12-23T05:41:03.548Z,39.00
2017-12-23T05:42:03.666Z,36.20
2017-12-23T05:43:56.294Z,36.90
2017-12-23T05:44:57.177Z,39.00
2017-12-23T05:46:50.737Z,36.80
2017-12-23T05:47:51.681Z,39.00
2017-12-23T05:49:43.306Z,39.80
2017-12-23T05:50:44.341Z,39.80
2017-12-23T05:52:37.748Z,38.90
2017-12-23T05:53:37.853Z,38.80
2017-12-23T05:55:32.033Z,44.10
2017-12-23T05:56:31.406Z,43.00
2017-12-23T05:58:24.074Z,43.80
2017-12-23T05:59:25.017Z,45.80
2017-12-23T06:01:17.704Z,50.10
2017-12-23T06:02:18.570Z,48.40
2017-12-23T06:04:11.987Z,47.40
2017-12-23T06:05:12.085Z,47.00
2017-12-23T06:07:04.781Z,48.70
2017-12-23T06:08:05.664Z,51.50
2017-12-23T06:09:59.832Z,58.40
2017-12-23T06:10:59.219Z,59.10
2017-12-23T06:12:52.795Z,61.90
2017-12-23T06:13:52.759Z,58.90
2017-12-23T06:15:45.444Z,64.10
2017-12-23T06:16:46.366Z,64.00
2017-12-23T06:18:39.813Z,65.40
2017-12-23T06:19:39.950Z,63.30
2017-12-23T06:21:30.835Z,70.40
2017-12-23T06:22:33.479Z,75.70
2017-12-23T06:24:26.911Z,77.30
2017-12-23T06:25:26.994Z,73.80
2017-12-23T06:27:19.604Z,82.40
2017-12-23T06:28:20.638Z,87.00
2017-12-23T06:30:14.197Z,93.00
2017-12-23T06:31:11.446Z,93.90
2017-12-23T06:33:08.265Z,99.60
2017-12-23T06:34:07.712Z,105.90
2017-12-23T06:36:00.340Z,98.00
2017-12-23T06:37:01.295Z,103.50
2017-12-23T06:38:54.788Z,95.90
2017-12-23T06:39:54.789Z,97.30
2017-12-23T06:41:48.951Z,98.40
2017-12-23T06:42:48.381Z,103.00
2017-12-23T06:44:41.869Z,92.20
2017-12-23T06:45:41.955Z,105.00
2017-12-23T06:47:34.563Z,93.20
2017-12-23T06:48:35.493Z,94.80
2017-12-23T06:50:29.100Z,93.00
2017-12-23T06:51:29.080Z,92.60
2017-12-23T06:53:21.550Z,93.00
2017-12-23T06:54:22.623Z,94.00
2017-12-23T06:56:16.173Z,86.40
2017-12-23T06:57:16.158Z,89.90
2017-12-23T06:59:08.656Z,95.60
2017-12-23T07:00:09.730Z,95.60
2017-12-23T07:02:03.269Z,91.30
2017-12-23T07:03:03.274Z,81.20
2017-12-23T07:04:57.427Z,85.90
2017-12-23T07:05:56.830Z,82.00
2017-12-23T07:07:50.969Z,84.70
2017-12-23T07:08:50.426Z,72.20
2017-12-23T07:10:43.744Z,60.70
2017-12-23T07:11:43.949Z,68.60
2017-12-23T07:13:35.329Z,54.60
2017-12-23T07:14:37.502Z,51.60
2017-12-23T07:16:31.060Z,52.30
2017-12-23T07:17:31.040Z,54.60
2017-12-23T07:19:23.526Z,50.30
2017-12-23T07:20:24.617Z,54.10
2017-12-23T07:22:18.174Z,47.60
2017-12-23T07:24:30.651Z,46.40
2017-12-23T07:25:31.580Z,46.80
2017-12-23T07:27:25.150Z,50.10
2017-12-23T07:28:22.508Z,53.50
2017-12-23T07:30:17.838Z,53.00
2017-12-23T07:31:18.701Z,48.60
2017-12-23T07:33:12.273Z,50.50
2017-12-23T07:34:12.277Z,53.20
2017-12-23T07:36:04.818Z,49.80
2017-12-23T07:37:05.852Z,51.50
2017-12-23T07:38:59.396Z,55.00
2017-12-23T07:39:59.368Z,55.10
2017-12-23T07:41:53.521Z,54.60
2017-12-23T07:42:52.979Z,57.00
2017-12-23T07:44:46.527Z,60.90
2017-12-23T07:45:43.854Z,57.50
2017-12-23T07:47:39.155Z,57.30
2017-12-23T07:48:40.018Z,54.00
2017-12-23T07:50:33.646Z,55.80
2017-12-23T07:51:33.600Z,58.60
2017-12-23T07:53:26.295Z,62.50
2017-12-23T07:54:26.730Z,56.00
2017-12-23T07:56:19.959Z,55.30
2017-12-23T07:57:20.720Z,56.60
2017-12-23T07:59:13.420Z,59.90
2017-12-23T08:00:14.340Z,59.00
2017-12-23T08:02:07.836Z,61.40
2017-12-23T08:03:07.852Z,61.00
2017-12-23T08:05:00.516Z,67.40
2017-12-23T08:06:01.403Z,65.40
2017-12-23T08:07:54.995Z,63.70
2017-12-23T08:08:54.950Z,64.80
2017-12-23T08:10:49.134Z,74.50
2017-12-23T08:11:48.507Z,76.40
2017-12-23T08:13:42.114Z,75.50
2017-12-23T08:14:42.080Z,71.80
2017-12-23T08:16:34.799Z,83.20
2017-12-23T08:17:35.636Z,70.80
2017-12-23T08:19:29.200Z,72.60
2017-12-23T08:20:29.197Z,73.60
2017-12-23T08:22:21.850Z,69.50
2017-12-23T08:23:22.785Z,71.60
2017-12-23T08:25:16.342Z,74.30
2017-12-23T08:26:16.310Z,81.80
2017-12-23T08:28:10.465Z,70.20
2017-12-23T08:29:09.930Z,67.40
2017-12-23T08:31:03.459Z,67.20
2017-12-23T08:32:03.428Z,70.70
2017-12-23T08:33:56.920Z,69.30
2017-12-23T08:34:56.988Z,68.90
2017-12-23T08:36:50.556Z,69.60
2017-12-23T08:37:50.549Z,61.20
2017-12-23T08:39:43.189Z,64.90
2017-12-23T08:40:44.099Z,65.60
2017-12-23T08:42:37.706Z,60.40
2017-12-23T08:43:37.654Z,58.80
2017-12-23T08:45:31.814Z,63.90
2017-12-23T08:46:31.287Z,64.40
2017-12-23T08:48:24.819Z,61.00
2017-12-23T08:49:24.832Z,53.40
2017-12-23T08:51:17.303Z,61.80
2017-12-23T08:52:18.349Z,61.20
2017-12-23T08:54:12.840Z,59.10
2017-12-23T08:55:11.896Z,61.70
2017-12-23T08:57:04.629Z,63.70
2017-12-23T08:58:05.458Z,63.80
2017-12-23T08:59:58.117Z,66.10
2017-12-23T09:00:59.015Z,64.50
2017-12-23T09:02:49.752Z,74.10
2017-12-23T09:03:52.622Z,73.10
2017-12-23T09:05:45.248Z,76.20
2017-12-23T09:06:46.172Z,75.90
2017-12-23T09:08:38.786Z,85.00
2017-12-23T09:09:39.710Z,83.60
2017-12-23T09:11:32.355Z,80.70
2017-12-23T09:12:33.581Z,83.10
2017-12-23T09:14:26.840Z,88.20
2017-12-23T09:15:26.811Z,91.40
2017-12-23T09:17:19.303Z,86.10
2017-12-23T09:18:20.404Z,88.80
2017-12-23T09:20:11.081Z,93.60
2017-12-23T09:21:13.953Z,92.20
2017-12-23T09:23:06.594Z,87.00
2017-12-23T09:24:07.533Z,81.50
2017-12-23T09:26:00.931Z,87.90
2017-12-23T09:27:01.124Z,91.50
2017-12-23T09:28:53.677Z,90.30
2017-12-23T09:29:54.603Z,90.40
2017-12-23T09:31:48.228Z,88.20
2017-12-23T09:32:45.541Z,90.30
2017-12-23T09:34:40.637Z,82.20
2017-12-23T09:35:41.714Z,80.10
2017-12-23T09:37:34.374Z,83.60
2017-12-23T09:38:35.279Z,72.90
2017-12-23T09:40:27.882Z,73.60
2017-12-23T09:41:28.831Z,77.90
2017-12-23T09:43:22.444Z,68.10
2017-12-23T09:44:22.402Z,68.20
2017-12-23T09:46:14.918Z,64.10
2017-12-23T09:47:15.951Z,67.00
2017-12-23T09:49:09.569Z,68.70
2017-12-23T09:50:06.889Z,64.90
2017-12-23T09:52:02.256Z,58.00
2017-12-23T09:53:03.218Z,61.20
2017-12-23T09:54:56.689Z,62.00
2017-12-23T09:55:56.645Z,64.40
2017-12-23T09:57:49.040Z,55.20
2017-12-23T09:58:50.260Z,56.70
2017-12-23T10:00:43.749Z,53.40
2017-12-23T10:01:43.790Z,54.70
2017-12-23T10:03:36.350Z,57.00
2017-12-23T10:04:37.345Z,55.90
2017-12-23T10:06:30.871Z,61.30
2017-12-23T10:07:30.467Z,59.90
2017-12-23T10:09:23.571Z,63.70
2017-12-23T10:10:24.526Z,61.00
2017-12-23T10:12:21.199Z,63.90
2017-12-23T10:13:17.998Z,60.40
2017-12-23T10:15:10.682Z,52.20
2017-12-23T10:16:11.590Z,51.20
2017-12-23T10:18:05.690Z,52.20
2017-12-23T10:19:05.110Z,54.80
2017-12-23T10:20:58.668Z,48.80
2017-12-23T10:21:58.723Z,46.70
2017-12-23T10:23:51.347Z,47.70
2017-12-23T10:24:50.264Z,47.60
2017-12-23T10:26:44.958Z,45.40
2017-12-23T10:27:45.819Z,45.20
2017-12-23T10:29:39.233Z,45.10
2017-12-23T10:30:39.356Z,42.40
2017-12-23T10:32:31.995Z,45.30
2017-12-23T10:33:32.919Z,42.90
2017-12-23T10:35:26.495Z,41.60
2017-12-23T10:36:26.469Z,41.90
2017-12-23T10:38:19.143Z,40.40
2017-12-23T10:39:20.019Z,40.20
2017-12-23T10:41:13.728Z,41.00
2017-12-23T10:42:11.067Z,37.30
2017-12-23T10:44:06.227Z,40.20
2017-12-23T10:45:07.153Z,45.90
2017-12-23T10:47:01.282Z,37.20
2017-12-23T10:48:00.768Z,37.70
2017-12-23T10:49:53.392Z,39.20
2017-12-23T10:50:54.271Z,40.20
2017-12-23T10:52:47.852Z,41.30
2017-12-23T10:53:47.851Z,39.30
2017-12-23T10:55:40.544Z,37.60
2017-12-23T10:56:41.396Z,39.40
2017-12-23T10:58:34.963Z,38.40
2017-12-23T10:59:32.307Z,37.80
2017-12-23T11:01:27.617Z,36.10
2017-12-23T11:02:28.526Z,33.70
2017-12-23T11:04:22.033Z,34.80
2017-12-23T11:05:22.119Z,35.10
2017-12-23T11:07:14.715Z,36.40
2017-12-23T11:08:15.626Z,36.40
2017-12-23T11:10:09.206Z,34.20
2017-12-23T11:11:09.216Z,37.00
2017-12-23T11:13:01.814Z,38.00
2017-12-23T11:14:02.768Z,38.70
2017-12-23T11:15:56.297Z,39.60
2017-12-23T11:16:56.223Z,41.50
2017-12-23T11:18:48.783Z,39.30
2017-12-23T11:19:49.912Z,39.40
2017-12-23T11:21:43.476Z,36.40
2017-12-23T11:22:43.413Z,38.30
2017-12-23T11:24:35.073Z,38.40
2017-12-23T11:25:37.017Z,35.00
2017-12-23T11:27:29.668Z,32.40
2017-12-23T11:28:30.579Z,32.80
2017-12-23T11:30:23.180Z,33.20
2017-12-23T11:31:24.080Z,33.70
2017-12-23T11:33:16.704Z,29.10
2017-12-23T11:34:17.649Z,29.30
2017-12-23T11:36:11.273Z,29.60
2017-12-23T11:37:11.256Z,25.50
2017-12-23T11:39:03.861Z,24.60
2017-12-23T11:40:04.807Z,25.50
2017-12-23T11:41:56.158Z,22.20
2017-12-23T11:42:58.311Z,20.80
2017-12-23T11:44:51.016Z,21.50
2017-12-23T11:45:51.933Z,21.60
2017-12-23T11:47:45.494Z,20.50
2017-12-23T11:48:45.436Z,20.60
2017-12-23T11:50:39.616Z,16.40
2017-12-23T11:51:39.023Z,17.60
2017-12-23T11:53:31.708Z,17.70
2017-12-23T11:54:32.603Z,17.10
2017-12-23T11:56:26.140Z,15.80
2017-12-23T11:57:26.204Z,16.10
2017-12-23T11:59:16.888Z,14.90
2017-12-23T12:00:19.730Z,15.30
2017-12-23T12:02:12.360Z,15.60
2017-12-23T12:03:13.269Z,14.80
2017-12-23T12:05:06.030Z,15.60
2017-12-23T12:06:06.799Z,16.20
2017-12-23T12:08:00.352Z,17.40
2017-12-23T12:09:00.457Z,16.50
2017-12-23T12:10:51.164Z,14.30
2017-12-23T12:11:53.927Z,14.50
2017-12-23T12:13:46.468Z,17.20
2017-12-23T12:14:47.491Z,16.90
2017-12-23T12:16:38.308Z,14.20
2017-12-23T12:17:41.057Z,15.90
2017-12-23T12:19:34.539Z,16.70
2017-12-23T12:20:34.642Z,17.80
2017-12-23T12:22:27.302Z,18.00
2017-12-23T12:23:28.339Z,18.00
2017-12-23T12:25:21.625Z,22.00
2017-12-23T12:26:21.706Z,19.40
2017-12-23T12:28:14.398Z,20.60
2017-12-23T12:30:27.766Z,21.30
2017-12-23T12:31:28.740Z,21.00
2017-12-23T12:33:21.363Z,19.50
2017-12-23T12:34:22.250Z,21.20
2017-12-23T12:36:15.805Z,20.70
2017-12-23T12:37:15.845Z,21.80
2017-12-23T12:39:09.373Z,23.00
2017-12-23T12:40:09.496Z,22.00
2017-12-23T12:42:00.841Z,22.50
2017-12-23T12:43:02.936Z,21.30
2017-12-23T12:44:55.569Z,20.00
2017-12-23T12:45:56.482Z,22.60
2017-12-23T12:47:51.014Z,25.70
2017-12-23T12:48:50.087Z,22.90
2017-12-23T12:50:44.217Z,24.40
2017-12-23T12:52:57.082Z,24.20
2017-12-23T12:53:54.416Z,26.10
2017-12-23T12:55:49.607Z,23.50
2017-12-23T12:56:50.579Z,24.90
2017-12-23T12:58:43.078Z,26.90
2017-12-23T12:59:44.154Z,26.30
2017-12-23T13:01:37.664Z,26.90
2017-12-23T13:02:37.725Z,27.30
2017-12-23T13:04:31.866Z,25.70
2017-12-23T13:05:31.256Z,25.50
2017-12-23T13:07:24.837Z,23.80
2017-12-23T13:08:24.804Z,24.50
2017-12-23T13:10:18.972Z,23.90
2017-12-23T13:11:18.370Z,23.60
2017-12-23T13:13:10.100Z,23.20
2017-12-23T13:14:11.972Z,23.10
2017-12-23T13:16:04.574Z,23.10
2017-12-23T13:17:05.468Z,22.10
2017-12-23T13:18:59.011Z,20.30
2017-12-23T13:19:59.075Z,22.50
2017-12-23T13:21:51.757Z,23.50
2017-12-23T13:22:52.626Z,22.60
2017-12-23T13:24:46.153Z,22.60
2017-12-23T13:25:46.141Z,22.70
2017-12-23T13:27:37.622Z,23.60
2017-12-23T13:28:39.758Z,22.90
2017-12-23T13:30:35.585Z,21.20
2017-12-23T13:31:33.285Z,21.90
2017-12-23T13:33:25.834Z,22.50
2017-12-23T13:34:26.839Z,22.30
2017-12-23T13:36:20.357Z,21.00
2017-12-23T13:37:20.390Z,20.30
2017-12-23T13:39:13.042Z,20.20
2017-12-23T13:40:13.970Z,20.20
2017-12-23T13:42:07.566Z,18.40
2017-12-23T13:43:07.511Z,20.70
2017-12-23T13:45:01.706Z,18.60
2017-12-23T13:46:01.061Z,19.00
2017-12-23T13:47:55.211Z,18.90
2017-12-23T13:48:54.646Z,19.20
2017-12-23T13:50:48.224Z,21.60
2017-12-23T13:51:48.218Z,20.10
2017-12-23T13:53:38.915Z,19.10
2017-12-23T13:54:41.729Z,21.00
2017-12-23T13:56:34.464Z,24.10
2017-12-23T13:57:35.308Z,21.40
2017-12-23T13:59:28.889Z,20.00
2017-12-23T14:00:28.866Z,20.90
2017-12-23T14:02:23.161Z,23.10
2017-12-23T14:03:22.421Z,22.60
2017-12-23T14:05:15.073Z,22.20
2017-12-23T14:06:16.037Z,23.50
2017-12-23T14:08:09.565Z,24.70
2017-12-23T14:09:09.543Z,23.90
2017-12-23T14:11:01.836Z,23.50
2017-12-23T14:12:03.106Z,25.40
2017-12-23T14:13:56.679Z,27.60
2017-12-23T14:14:56.653Z,26.10
2017-12-23T14:16:49.382Z,28.60
2017-12-23T14:17:50.314Z,29.10
2017-12-23T14:19:43.767Z,29.20
2017-12-23T14:20:43.777Z,28.80
2017-12-23T14:22:36.482Z,29.90
2017-12-23T14:23:37.127Z,31.80
2017-12-23T14:25:30.891Z,32.00
2017-12-23T14:26:30.897Z,30.70
2017-12-23T14:28:22.044Z,31.00
2017-12-23T14:29:24.445Z,32.00
2017-12-23T14:31:17.127Z,31.10
2017-12-23T14:32:17.362Z,31.30
2017-12-23T14:34:12.508Z,31.60
2017-12-23T14:35:11.596Z,30.20
2017-12-23T14:37:05.753Z,34.20
2017-12-23T14:38:05.151Z,34.40
2017-12-23T14:39:57.609Z,34.20
2017-12-23T14:40:56.034Z,34.20
2017-12-23T14:42:52.203Z,32.70
2017-12-23T14:43:52.271Z,34.40
2017-12-23T14:45:44.770Z,33.30
2017-12-23T14:46:45.799Z,33.60
2017-12-23T14:48:39.350Z,33.20
2017-12-23T14:49:39.360Z,36.60
2017-12-23T14:51:31.934Z,33.10
2017-12-23T14:52:32.952Z,34.60
2017-12-23T14:54:26.471Z,35.50
2017-12-23T14:55:26.481Z,35.70
2017-12-23T14:57:19.205Z,33.30
2017-12-23T14:58:18.436Z,35.30
2017-12-23T15:00:12.784Z,38.10
2017-12-23T15:01:13.661Z,36.90
2017-12-23T15:03:07.169Z,36.40
2017-12-23T15:04:07.253Z,36.10
2017-12-23T15:05:59.867Z,32.20
2017-12-23T15:07:00.833Z,35.50
2017-12-23T15:08:54.201Z,36.80
2017-12-23T15:09:53.453Z,35.60
2017-12-23T15:11:46.993Z,34.90
2017-12-23T15:12:47.871Z,32.90
2017-12-23T15:14:41.449Z,34.80
2017-12-23T15:15:41.431Z,33.20
2017-12-23T15:17:34.105Z,33.60
2017-12-23T15:18:35.019Z,34.80
2017-12-23T15:20:28.566Z,33.10
2017-12-23T15:21:28.768Z,35.60
2017-12-23T15:23:21.087Z,35.00
2017-12-23T15:24:22.189Z,34.50
2017-12-23T15:26:15.673Z,33.70
2017-12-23T15:27:15.833Z,31.20
2017-12-23T15:29:08.440Z,32.70
2017-12-23T15:31:22.711Z,32.50
2017-12-23T15:32:21.853Z,32.40
2017-12-23T15:34:15.398Z,32.70
2017-12-23T15:35:16.257Z,31.70
2017-12-23T15:37:09.821Z,31.60
2017-12-23T15:38:07.172Z,30.20
2017-12-23T15:40:03.501Z,30.60
2017-12-23T15:41:04.432Z,28.90
2017-12-23T15:42:57.946Z,30.80
2017-12-23T15:43:58.009Z,31.60
2017-12-23T15:45:50.589Z,31.50
2017-12-23T15:46:51.501Z,30.50
2017-12-23T15:48:45.094Z,31.10
2017-12-23T15:49:45.080Z,32.40
2017-12-23T15:51:37.791Z,32.00
2017-12-23T15:52:38.691Z,32.30
2017-12-23T15:54:30.296Z,32.40
2017-12-23T15:55:29.551Z,31.60
2017-12-23T15:57:24.846Z,30.20
2017-12-23T15:58:25.784Z,31.60
2017-12-23T16:00:19.381Z,30.00
2017-12-23T16:01:19.345Z,29.00
2017-12-23T16:03:11.899Z,30.80
2017-12-23T16:04:12.901Z,30.20
2017-12-23T16:06:06.475Z,31.20
2017-12-23T16:07:06.471Z,31.60
2017-12-23T16:09:01.637Z,29.30
2017-12-23T16:10:00.024Z,28.60
2017-12-23T16:11:53.616Z,29.20
2017-12-23T16:12:53.386Z,28.60
2017-12-23T16:14:46.101Z,31.30
2017-12-23T16:15:47.192Z,32.10
2017-12-23T16:17:40.782Z,30.90
2017-12-23T16:18:40.736Z,30.60
2017-12-23T16:20:33.862Z,27.80
2017-12-23T16:21:34.280Z,28.30
2017-12-23T16:23:28.023Z,28.00
2017-12-23T16:25:41.852Z,27.20
2017-12-23T16:26:41.274Z,28.60
2017-12-23T16:28:33.994Z,27.00
2017-12-23T16:29:34.889Z,25.60
2017-12-23T16:31:28.474Z,25.30
2017-12-23T16:33:41.846Z,26.50
2017-12-23T16:34:41.813Z,27.10
2017-12-23T16:36:35.952Z,24.60
2017-12-23T16:37:33.624Z,25.10
2017-12-23T16:39:28.833Z,25.90
2017-12-23T16:40:28.949Z,24.80
2017-12-23T16:42:22.504Z,28.80
2017-12-23T16:43:22.495Z,26.40
2017-12-23T16:45:13.234Z,27.30
2017-12-23T16:46:16.054Z,24.80
2017-12-23T16:48:09.615Z,27.00
2017-12-23T16:49:09.635Z,26.70
2017-12-23T16:51:02.495Z,29.20
2017-12-23T16:53:23.764Z,28.20
2017-12-23T16:54:18.006Z,27.50
2017-12-23T16:56:09.164Z,29.70
2017-12-23T16:57:10.193Z,30.50
2017-12-23T16:59:02.839Z,27.90
2017-12-23T17:00:03.865Z,26.30
2017-12-23T17:01:56.447Z,29.00
2017-12-23T17:02:57.318Z,28.40
2017-12-23T17:04:48.034Z,27.80
2017-12-23T17:05:50.869Z,27.60
2017-12-23T17:07:41.663Z,24.80
2017-12-23T17:08:44.433Z,26.90
2017-12-23T17:10:38.128Z,29.90
2017-12-23T17:11:38.067Z,29.40
2017-12-23T17:13:32.196Z,28.90
2017-12-23T17:14:31.569Z,28.50
2017-12-23T17:16:25.134Z,28.60
2017-12-23T17:17:24.713Z,27.10
2017-12-23T17:19:18.716Z,30.20
2017-12-23T17:20:18.679Z,29.30
2017-12-23T17:22:12.267Z,29.20
2017-12-23T17:23:12.264Z,26.70
2017-12-23T17:28:08.905Z,27.70
2017-12-23T17:29:09.716Z,29.30
2017-12-23T17:31:03.868Z,30.30
2017-12-23T17:32:03.276Z,29.50
2017-12-23T17:33:55.839Z,29.80
2017-12-23T17:34:56.925Z,30.30
2017-12-23T17:36:50.455Z,28.10
2017-12-23T17:37:47.784Z,30.40
2017-12-23T17:39:43.102Z,29.70
2017-12-23T17:40:44.003Z,31.70
2017-12-23T17:42:36.712Z,28.10
2017-12-23T17:44:50.920Z,30.60
2017-12-23T17:45:50.974Z,30.00
2017-12-23T17:47:41.998Z,28.50
2017-12-23T17:48:44.607Z,32.00
2017-12-23T17:50:38.123Z,28.80
2017-12-23T17:51:38.123Z,28.40
2017-12-23T17:53:32.249Z,28.50
2017-12-23T17:54:31.822Z,28.80
2017-12-23T17:56:25.237Z,28.30
2017-12-23T17:57:25.247Z,28.20
2017-12-23T17:59:19.023Z,28.00
2017-12-23T18:00:17.378Z,31.80
2017-12-23T18:02:12.385Z,29.40
2017-12-23T18:03:12.432Z,29.80
2017-12-23T18:05:05.055Z,30.00
2017-12-23T18:06:05.934Z,30.50
2017-12-23T18:07:59.525Z,36.00
2017-12-23T18:08:59.572Z,29.20
2017-12-23T18:10:53.685Z,28.60
2017-12-23T18:11:53.081Z,30.30
2017-12-23T18:13:45.741Z,31.10
2017-12-23T18:14:46.772Z,27.90
2017-12-23T18:16:40.191Z,29.90
2017-12-23T18:17:37.719Z,28.60
2017-12-23T18:19:32.753Z,28.90
2017-12-23T18:20:33.793Z,29.60
2017-12-23T18:22:26.453Z,32.00
2017-12-23T18:23:27.472Z,29.90
2017-12-23T18:25:19.995Z,32.10
2017-12-23T18:26:19.409Z,30.50
2017-12-23T18:28:14.526Z,32.20
2017-12-23T18:29:13.529Z,31.00
2017-12-23T18:31:05.212Z,31.50
2017-12-23T18:32:08.032Z,30.70
2017-12-23T18:34:01.594Z,31.80
2017-12-23T18:34:58.919Z,29.90
2017-12-23T18:36:54.423Z,33.60
2017-12-23T18:37:55.207Z,30.70
2017-12-23T18:39:48.711Z,33.50
2017-12-23T18:40:48.733Z,33.30
2017-12-23T18:42:41.425Z,30.90
2017-12-23T18:43:42.299Z,31.90